createdAt,value
2019-02-27T00:00:31.149Z,9.50
2019-02-27T00:02:59.612Z,7.17
2019-02-27T00:05:28.111Z,6.80
2019-02-27T00:07:56.578Z,9.77
2019-02-27T00:10:25.090Z,10.00
2019-02-27T00:12:53.603Z,7.20
2019-02-27T00:15:22.044Z,8.43
2019-02-27T00:17:51.377Z,14.60
2019-02-27T00:20:20.504Z,10.50
2019-02-27T00:22:50.653Z,12.80
2019-02-27T00:25:19.151Z,8.57
2019-02-27T00:27:49.168Z,8.10
2019-02-27T00:30:17.895Z,7.67
2019-02-27T00:32:50.861Z,6.90
2019-02-27T00:35:16.542Z,9.10
2019-02-27T00:37:44.971Z,9.57
2019-02-27T00:40:13.425Z,9.40
2019-02-27T00:42:41.873Z,10.40
2019-02-27T00:45:11.356Z,8.47
2019-02-27T00:47:39.854Z,7.67
2019-02-27T00:50:09.748Z,12.40
2019-02-27T00:52:38.187Z,12.50
2019-02-27T00:55:07.653Z,7.83
2019-02-27T00:57:36.116Z,9.00
2019-02-27T01:00:07.627Z,9.70
2019-02-27T01:02:36.085Z,10.23
2019-02-27T01:05:06.216Z,6.97
2019-02-27T01:07:36.247Z,18.70
2019-02-27T01:10:07.018Z,9.40
2019-02-27T01:12:35.486Z,9.30
2019-02-27T01:15:10.699Z,9.03
2019-02-27T01:17:38.682Z,7.10
2019-02-27T01:20:11.510Z,8.00
2019-02-27T01:22:40.532Z,8.77
2019-02-27T01:25:09.127Z,9.20
2019-02-27T01:27:38.191Z,18.33
2019-02-27T01:30:10.159Z,14.17
2019-02-27T01:32:38.630Z,7.67
2019-02-27T01:35:09.308Z,19.33
2019-02-27T01:37:37.757Z,9.00
2019-02-27T01:40:09.216Z,7.67
2019-02-27T01:42:37.668Z,6.33
2019-02-27T01:45:09.354Z,9.17
2019-02-27T01:47:37.803Z,10.13
2019-02-27T01:50:27.022Z,10.50
2019-02-27T01:52:55.466Z,12.30
2019-02-27T01:55:23.888Z,7.13
2019-02-27T01:57:52.326Z,7.33
2019-02-27T02:00:23.008Z,8.47
2019-02-27T02:02:51.006Z,11.43
2019-02-27T02:05:19.469Z,6.47
2019-02-27T02:07:48.564Z,11.90
2019-02-27T02:10:17.571Z,5.63
2019-02-27T02:12:49.179Z,9.60
2019-02-27T02:15:27.304Z,6.57
2019-02-27T02:18:17.355Z,6.90
2019-02-27T02:20:54.742Z,7.00
2019-02-27T02:23:44.973Z,8.10
2019-02-27T02:26:42.920Z,7.37
2019-02-27T02:29:36.752Z,6.40
2019-02-27T02:32:22.982Z,9.47
2019-02-27T02:35:14.792Z,4.97
2019-02-27T02:37:45.421Z,7.70
2019-02-27T02:40:30.852Z,6.03
2019-02-27T02:43:31.658Z,6.73
2019-02-27T02:46:12.057Z,7.57
2019-02-27T02:49:10.323Z,5.23
2019-02-27T02:52:07.212Z,8.90
2019-02-27T02:54:47.783Z,10.30
2019-02-27T02:57:38.609Z,5.80
2019-02-27T03:00:19.216Z,4.90
2019-02-27T03:03:05.774Z,5.70
2019-02-27T03:05:49.405Z,7.80
2019-02-27T03:08:38.998Z,4.23
2019-02-27T03:11:27.046Z,10.07
2019-02-27T03:14:28.921Z,4.40
2019-02-27T03:17:08.610Z,5.20
2019-02-27T03:19:46.076Z,8.90
2019-02-27T03:22:29.304Z,7.10
2019-02-27T03:25:04.052Z,5.97
2019-02-27T03:27:45.713Z,6.70
2019-02-27T03:30:36.303Z,11.70
2019-02-27T03:33:26.812Z,6.60
2019-02-27T03:35:59.933Z,7.80
2019-02-27T03:38:49.703Z,9.70
2019-02-27T03:41:33.145Z,10.50
2019-02-27T03:44:10.306Z,5.73
2019-02-27T03:46:59.452Z,7.37
2019-02-27T03:49:52.705Z,8.10
2019-02-27T03:53:00.079Z,19.17
2019-02-27T03:55:34.472Z,8.73
2019-02-27T03:58:32.791Z,6.30
2019-02-27T04:01:09.915Z,11.83
2019-02-27T04:04:03.934Z,4.80
2019-02-27T04:06:47.003Z,5.50
2019-02-27T04:09:18.587Z,8.17
2019-02-27T04:11:45.636Z,7.97
2019-02-27T04:14:28.964Z,6.77
2019-02-27T04:16:57.514Z,6.30
2019-02-27T04:19:26.027Z,6.60
2019-02-27T04:22:00.644Z,7.07
2019-02-27T04:24:24.613Z,7.03
2019-02-27T04:26:53.497Z,10.53
2019-02-27T04:29:22.024Z,9.60
2019-02-27T04:31:50.458Z,7.53
2019-02-27T04:34:18.899Z,8.33
2019-02-27T04:36:47.813Z,7.43
2019-02-27T04:39:16.263Z,8.63
2019-02-27T04:41:44.693Z,6.00
2019-02-27T04:44:13.147Z,8.40
2019-02-27T04:46:41.592Z,7.33
2019-02-27T04:49:10.053Z,5.60
2019-02-27T04:51:38.483Z,9.80
2019-02-27T04:54:07.551Z,10.90
2019-02-27T04:56:36.052Z,4.47
2019-02-27T04:59:04.522Z,10.23
2019-02-27T05:01:36.423Z,7.27
2019-02-27T05:04:03.117Z,13.60
2019-02-27T05:06:31.612Z,6.47
2019-02-27T05:09:00.760Z,13.17
2019-02-27T05:11:29.331Z,12.40
2019-02-27T05:13:57.781Z,6.77
2019-02-27T05:16:26.243Z,6.60
2019-02-27T05:18:54.704Z,6.83
2019-02-27T05:21:23.181Z,6.97
2019-02-27T05:23:51.648Z,6.97
2019-02-27T05:26:20.101Z,6.63
2019-02-27T05:28:48.596Z,8.00
2019-02-27T05:31:19.081Z,5.90
2019-02-27T05:33:47.260Z,6.80
2019-02-27T05:36:15.728Z,11.23
2019-02-27T05:38:44.184Z,8.63
2019-02-27T05:41:12.695Z,6.20
2019-02-27T05:43:41.142Z,6.37
2019-02-27T05:46:09.599Z,6.70
2019-02-27T05:48:38.034Z,7.10
2019-02-27T05:51:07.584Z,5.97
2019-02-27T05:53:36.708Z,8.00
2019-02-27T05:56:05.151Z,5.90
2019-02-27T05:58:33.590Z,6.80
2019-02-27T06:01:04.875Z,7.37
2019-02-27T06:03:32.206Z,7.23
2019-02-27T06:06:00.662Z,9.23
2019-02-27T06:08:29.124Z,7.20
2019-02-27T06:10:57.594Z,6.73
2019-02-27T06:13:26.119Z,6.77
2019-02-27T06:15:54.563Z,5.70
2019-02-27T06:18:23.758Z,7.43
2019-02-27T06:20:52.327Z,11.85
2019-02-27T06:23:20.759Z,5.93
2019-02-27T06:25:49.235Z,10.20
2019-02-27T06:28:18.845Z,6.33
2019-02-27T06:30:47.885Z,10.03
2019-02-27T06:33:16.368Z,11.73
2019-02-27T06:35:44.802Z,6.00
2019-02-27T06:38:13.241Z,6.60
2019-02-27T06:40:42.306Z,11.47
2019-02-27T06:43:11.492Z,6.87
2019-02-27T06:45:39.928Z,10.47
2019-02-27T06:48:10.221Z,8.33
2019-02-27T06:50:38.538Z,10.20
2019-02-27T06:53:06.995Z,8.17
2019-02-27T06:55:35.476Z,21.90
2019-02-27T06:58:03.973Z,13.27
2019-02-27T07:00:35.756Z,9.30
2019-02-27T07:03:02.600Z,9.08
2019-02-27T07:05:31.031Z,7.43
2019-02-27T07:08:02.116Z,26.33
2019-02-27T07:10:29.659Z,19.03
2019-02-27T07:12:58.111Z,14.63
2019-02-27T07:15:26.589Z,14.77
2019-02-27T07:17:55.038Z,14.00
2019-02-27T07:20:24.517Z,17.30
2019-02-27T07:22:53.731Z,13.00
2019-02-27T07:25:22.171Z,10.13
2019-02-27T07:27:50.675Z,15.97
2019-02-27T07:30:20.062Z,11.97
2019-02-27T07:32:48.781Z,20.10
2019-02-27T07:35:17.279Z,18.03
2019-02-27T07:37:48.115Z,13.80
2019-02-27T07:40:17.067Z,12.17
2019-02-27T07:42:45.507Z,18.23
2019-02-27T07:45:19.284Z,17.80
2019-02-27T07:47:47.720Z,17.60
2019-02-27T07:50:20.527Z,19.77
2019-02-27T07:52:49.111Z,22.73
2019-02-27T07:55:22.686Z,18.93
2019-02-27T07:57:48.669Z,43.10
2019-02-27T08:00:23.445Z,27.10
2019-02-27T08:02:51.887Z,21.83
2019-02-27T08:05:20.400Z,22.50
2019-02-27T08:07:49.767Z,10.27
2019-02-27T08:10:25.476Z,11.03
2019-02-27T08:12:56.509Z,13.50
2019-02-27T08:15:25.311Z,10.07
2019-02-27T08:17:57.661Z,9.47
2019-02-27T08:20:24.068Z,9.20
2019-02-27T08:22:52.508Z,10.20
2019-02-27T08:25:20.939Z,11.57
2019-02-27T08:27:49.356Z,10.30
2019-02-27T08:30:23.948Z,10.77
2019-02-27T08:32:52.443Z,7.07
2019-02-27T08:35:20.910Z,12.83
2019-02-27T08:37:49.343Z,12.70
2019-02-27T08:40:17.798Z,9.97
2019-02-27T08:42:46.210Z,13.00
2019-02-27T08:45:20.510Z,11.30
2019-02-27T08:47:49.321Z,10.77
2019-02-27T08:50:21.576Z,12.33
2019-02-27T08:52:51.498Z,9.43
2019-02-27T08:55:22.603Z,11.00
2019-02-27T08:57:55.819Z,8.43
2019-02-27T09:00:29.402Z,7.30
2019-02-27T09:03:02.494Z,11.57
2019-02-27T09:05:28.243Z,10.77
2019-02-27T09:07:56.681Z,8.50
2019-02-27T09:10:26.722Z,11.40
2019-02-27T09:13:04.910Z,9.47
2019-02-27T09:15:26.319Z,15.67
2019-02-27T09:17:54.742Z,10.73
2019-02-27T09:20:23.175Z,14.00
2019-02-27T09:22:51.604Z,13.93
2019-02-27T09:25:23.688Z,8.93
2019-02-27T09:27:50.262Z,12.93
2019-02-27T09:30:28.921Z,9.93
2019-02-27T09:32:53.941Z,18.10
2019-02-27T09:35:22.387Z,9.47
2019-02-27T09:37:51.848Z,21.70
2019-02-27T09:40:24.705Z,9.30
2019-02-27T09:42:53.978Z,11.40
2019-02-27T09:45:34.893Z,11.63
2019-02-27T09:48:03.471Z,9.60
2019-02-27T09:50:39.969Z,13.27
2019-02-27T09:53:08.406Z,11.60
2019-02-27T09:55:37.004Z,13.33
2019-02-27T09:58:10.375Z,10.23
2019-02-27T10:00:51.751Z,13.27
2019-02-27T10:03:21.402Z,15.53
2019-02-27T10:05:50.003Z,14.20
2019-02-27T10:08:18.535Z,8.77
2019-02-27T10:10:46.999Z,11.80
2019-02-27T10:13:15.474Z,12.53
2019-02-27T10:15:43.913Z,13.77
2019-02-27T10:18:12.426Z,15.23
2019-02-27T10:20:40.925Z,12.57
2019-02-27T10:23:09.357Z,11.23
2019-02-27T10:25:37.789Z,12.37
2019-02-27T10:28:06.406Z,16.30
2019-02-27T10:30:34.914Z,11.23
2019-02-27T10:33:03.643Z,14.20
2019-02-27T10:35:34.582Z,18.60
2019-02-27T10:38:02.693Z,17.57
2019-02-27T10:40:31.278Z,16.87
2019-02-27T10:42:59.744Z,16.47
2019-02-27T10:45:28.164Z,15.27
2019-02-27T10:47:56.654Z,23.43
2019-02-27T10:50:25.071Z,26.50
2019-02-27T10:52:53.544Z,25.97
2019-02-27T10:55:22.920Z,22.70
2019-02-27T10:57:51.526Z,15.37
2019-02-27T11:00:35.104Z,19.43
2019-02-27T11:03:03.633Z,16.00
2019-02-27T11:05:34.669Z,21.80
2019-02-27T11:08:03.210Z,15.43
2019-02-27T11:10:31.773Z,15.77
2019-02-27T11:13:05.506Z,18.47
2019-02-27T11:15:30.443Z,20.37
2019-02-27T11:18:04.215Z,15.77
2019-02-27T11:20:29.075Z,15.73
2019-02-27T11:22:57.513Z,17.10
2019-02-27T11:25:29.926Z,16.73
2019-02-27T11:27:58.362Z,22.30
2019-02-27T11:30:29.445Z,15.53
2019-02-27T11:32:58.140Z,22.33
2019-02-27T11:35:26.582Z,17.60
2019-02-27T11:37:55.023Z,27.23
2019-02-27T11:40:24.707Z,18.23
2019-02-27T11:42:53.166Z,18.40
2019-02-27T11:45:24.592Z,16.90
2019-02-27T11:47:52.039Z,16.50
2019-02-27T11:50:20.642Z,24.90
2019-02-27T11:52:49.381Z,18.33
2019-02-27T11:55:24.464Z,16.33
2019-02-27T11:57:53.095Z,18.20
2019-02-27T12:00:26.272Z,20.13
2019-02-27T12:02:54.850Z,18.07
2019-02-27T12:05:23.272Z,15.97
2019-02-27T12:07:51.919Z,18.87
2019-02-27T12:10:31.071Z,14.60
2019-02-27T12:13:01.029Z,15.53
2019-02-27T12:15:29.876Z,17.20
2019-02-27T12:18:00.386Z,18.03
2019-02-27T12:20:28.486Z,16.80
2019-02-27T12:22:57.177Z,22.77
2019-02-27T12:25:29.033Z,20.70
2019-02-27T12:27:56.536Z,17.53
2019-02-27T12:30:29.443Z,13.23
2019-02-27T12:32:58.063Z,13.67
2019-02-27T12:35:34.250Z,16.33
2019-02-27T12:38:06.814Z,15.50
2019-02-27T12:40:33.178Z,18.30
2019-02-27T12:43:01.695Z,15.23
2019-02-27T12:45:30.967Z,12.33
2019-02-27T12:47:59.511Z,11.43
2019-02-27T12:50:31.100Z,18.07
2019-02-27T12:52:59.275Z,16.83
2019-02-27T12:55:28.262Z,15.67
2019-02-27T12:57:56.703Z,14.50
2019-02-27T13:00:35.141Z,17.93
2019-02-27T13:03:08.207Z,13.10
2019-02-27T13:05:33.841Z,13.27
2019-02-27T13:08:02.271Z,13.60
2019-02-27T13:10:34.182Z,13.90
2019-02-27T13:13:00.907Z,15.70
2019-02-27T13:15:30.165Z,11.90
2019-02-27T13:17:58.665Z,16.80
2019-02-27T13:20:32.132Z,14.20
2019-02-27T13:23:04.092Z,20.63
2019-02-27T13:25:30.745Z,14.60
2019-02-27T13:27:59.266Z,14.33
2019-02-27T13:30:28.517Z,16.67
2019-02-27T13:33:00.610Z,20.60
2019-02-27T13:35:28.574Z,11.63
2019-02-27T13:37:57.471Z,14.70
2019-02-27T13:40:27.350Z,12.87
2019-02-27T13:42:55.868Z,10.50
2019-02-27T13:45:26.520Z,12.43
2019-02-27T13:47:55.133Z,14.27
2019-02-27T13:50:26.745Z,12.80
2019-02-27T13:52:53.960Z,15.43
2019-02-27T13:55:23.359Z,13.03
2019-02-27T13:57:51.899Z,14.50
2019-02-27T14:00:41.198Z,16.90
2019-02-27T14:03:28.965Z,9.97
2019-02-27T14:06:10.215Z,7.23
2019-02-27T14:08:51.082Z,7.37
2019-02-27T14:11:31.801Z,8.60
2019-02-27T14:14:15.129Z,6.30
2019-02-27T14:16:55.522Z,6.00
2019-02-27T14:19:36.708Z,8.30
2019-02-27T14:22:17.010Z,11.23
2019-02-27T14:24:58.354Z,4.43
2019-02-27T14:27:39.103Z,5.70
2019-02-27T14:30:19.982Z,7.10
2019-02-27T14:33:00.988Z,5.70
2019-02-27T14:35:41.874Z,5.47
2019-02-27T14:38:22.942Z,7.80
2019-02-27T14:41:03.395Z,6.10
2019-02-27T14:43:31.836Z,6.07
2019-02-27T14:46:00.285Z,4.80
2019-02-27T14:48:28.719Z,8.17
2019-02-27T14:50:57.165Z,9.43
2019-02-27T14:53:25.687Z,13.03
2019-02-27T14:55:54.134Z,8.93
2019-02-27T14:58:24.379Z,11.83
2019-02-27T15:00:52.843Z,15.93
2019-02-27T15:03:21.301Z,14.03
2019-02-27T15:05:49.747Z,11.43
2019-02-27T15:08:18.174Z,8.37
2019-02-27T15:10:46.630Z,10.10
2019-02-27T15:13:15.051Z,9.93
2019-02-27T15:15:44.384Z,8.00
2019-02-27T15:18:14.043Z,12.33
2019-02-27T15:20:42.547Z,9.33
2019-02-27T15:23:10.967Z,6.97
2019-02-27T15:25:43.218Z,14.97
2019-02-27T15:28:09.603Z,7.77
2019-02-27T15:30:38.125Z,12.90
2019-02-27T15:33:06.552Z,8.83
2019-02-27T15:35:35.125Z,9.03
2019-02-27T15:38:03.830Z,7.70
2019-02-27T15:40:32.278Z,20.83
2019-02-27T15:43:00.716Z,8.30
2019-02-27T15:45:29.593Z,14.43
2019-02-27T15:47:58.022Z,11.53
2019-02-27T15:50:31.938Z,8.50
2019-02-27T15:53:00.401Z,18.33
2019-02-27T15:55:32.769Z,8.63
2019-02-27T15:57:59.234Z,16.10
2019-02-27T16:00:28.764Z,14.13
2019-02-27T16:02:57.303Z,15.23
2019-02-27T16:05:30.164Z,10.83
2019-02-27T16:07:56.033Z,16.30
2019-02-27T16:10:30.263Z,8.53
2019-02-27T16:13:01.073Z,14.63
2019-02-27T16:15:28.930Z,17.20
2019-02-27T16:17:57.381Z,10.73
2019-02-27T16:20:26.784Z,18.93
2019-02-27T16:22:55.521Z,18.40
2019-02-27T16:25:28.671Z,15.00
2019-02-27T16:27:57.189Z,18.47
2019-02-27T16:30:31.352Z,18.10
2019-02-27T16:32:57.194Z,19.47
2019-02-27T16:35:25.791Z,20.50
2019-02-27T16:37:57.482Z,18.40
2019-02-27T16:40:26.149Z,18.07
2019-02-27T16:42:54.663Z,20.20
2019-02-27T16:45:25.880Z,24.73
2019-02-27T16:47:57.331Z,13.60
2019-02-27T16:50:27.883Z,16.83
2019-02-27T16:52:56.469Z,19.40
2019-02-27T16:55:26.322Z,23.07
2019-02-27T16:57:57.466Z,18.30
2019-02-27T17:00:29.976Z,26.07
2019-02-27T17:02:58.470Z,22.70
2019-02-27T17:05:27.108Z,24.33
2019-02-27T17:08:00.260Z,19.43
2019-02-27T17:10:36.324Z,10.73
2019-02-27T17:13:04.914Z,18.93
2019-02-27T17:15:35.971Z,22.43
2019-02-27T17:18:03.577Z,11.50
2019-02-27T17:20:32.093Z,12.17
2019-02-27T17:23:00.563Z,17.27
2019-02-27T17:25:30.174Z,13.40
2019-02-27T17:27:58.956Z,17.03
2019-02-27T17:30:29.798Z,16.90
2019-02-27T17:32:58.231Z,19.50
2019-02-27T17:35:26.663Z,24.33
2019-02-27T17:37:55.116Z,19.80
2019-02-27T17:40:23.803Z,29.53
2019-02-27T17:42:53.445Z,28.50
2019-02-27T17:45:35.252Z,32.37
2019-02-27T17:48:20.766Z,15.67
2019-02-27T17:50:49.208Z,29.87
2019-02-27T17:53:20.422Z,25.67
2019-02-27T17:55:47.886Z,18.77
2019-02-27T17:58:16.323Z,28.07
2019-02-27T18:00:51.123Z,21.20
2019-02-27T18:03:19.283Z,11.77
2019-02-27T18:05:47.785Z,10.43
2019-02-27T18:08:17.063Z,14.40
2019-02-27T18:10:45.831Z,12.93
2019-02-27T18:13:14.256Z,27.73
2019-02-27T18:15:42.998Z,13.80
2019-02-27T18:18:11.436Z,21.33
2019-02-27T18:20:39.905Z,25.93
2019-02-27T18:23:08.323Z,24.53
2019-02-27T18:25:41.192Z,11.10
2019-02-27T18:28:06.932Z,15.03
2019-02-27T18:30:35.373Z,13.80
2019-02-27T18:33:03.823Z,21.27
2019-02-27T18:35:32.265Z,24.47
2019-02-27T18:38:00.732Z,15.47
2019-02-27T18:40:29.193Z,12.83
2019-02-27T18:42:57.656Z,15.00
2019-02-27T18:45:28.422Z,32.03
2019-02-27T18:47:58.733Z,19.70
2019-02-27T18:50:27.121Z,16.67
2019-02-27T18:52:55.569Z,21.30
2019-02-27T18:55:29.408Z,13.83
2019-02-27T18:57:54.160Z,15.93
2019-02-27T19:00:29.665Z,18.30
2019-02-27T19:03:00.354Z,26.93
2019-02-27T19:05:28.866Z,13.67
2019-02-27T19:07:57.295Z,24.23
2019-02-27T19:10:25.815Z,26.20
2019-02-27T19:13:01.089Z,20.20
2019-02-27T19:15:30.197Z,19.13
2019-02-27T19:17:58.631Z,22.83
2019-02-27T19:20:32.878Z,26.53
2019-02-27T19:23:01.330Z,21.90
2019-02-27T19:25:34.332Z,19.13
2019-02-27T19:28:00.055Z,21.07
2019-02-27T19:30:28.929Z,17.23
2019-02-27T19:33:01.630Z,21.43
2019-02-27T19:35:27.588Z,17.73
2019-02-27T19:37:56.026Z,21.50
2019-02-27T19:40:24.480Z,20.40
2019-02-27T19:43:01.532Z,21.40
2019-02-27T19:45:30.246Z,25.03
2019-02-27T19:47:58.667Z,18.30
2019-02-27T19:50:27.754Z,20.90
2019-02-27T19:52:56.179Z,18.13
2019-02-27T19:55:27.446Z,14.40
2019-02-27T19:57:55.022Z,21.40
2019-02-27T20:00:26.614Z,26.67
2019-02-27T20:03:00.273Z,29.90
2019-02-27T20:05:25.342Z,21.90
2019-02-27T20:07:54.328Z,45.43
2019-02-27T20:10:22.827Z,22.03
2019-02-27T20:12:53.685Z,16.23
2019-02-27T20:15:23.449Z,15.33
2019-02-27T20:17:52.039Z,21.67
2019-02-27T20:20:24.616Z,18.13
2019-02-27T20:22:54.821Z,23.17
2019-02-27T20:25:28.181Z,19.67
2019-02-27T20:27:57.850Z,17.40
2019-02-27T20:30:27.018Z,27.40
2019-02-27T20:32:56.119Z,28.80
2019-02-27T20:35:24.634Z,22.23
2019-02-27T20:37:53.157Z,15.70
2019-02-27T20:40:21.759Z,21.27
2019-02-27T20:42:54.440Z,17.23
2019-02-27T20:45:21.499Z,16.10
2019-02-27T20:47:51.293Z,16.63
2019-02-27T20:50:34.747Z,25.77
2019-02-27T20:53:01.846Z,17.23
2019-02-27T20:55:30.860Z,16.43
2019-02-27T20:58:00.484Z,17.60
2019-02-27T21:00:29.022Z,13.53
2019-02-27T21:02:57.491Z,14.10
2019-02-27T21:05:26.265Z,18.93
2019-02-27T21:08:00.916Z,12.63
2019-02-27T21:10:27.410Z,14.70
2019-02-27T21:12:55.887Z,17.97
2019-02-27T21:15:24.981Z,18.67
2019-02-27T21:17:57.494Z,12.93
2019-02-27T21:20:23.934Z,19.83
2019-02-27T21:22:52.429Z,25.80
2019-02-27T21:25:20.861Z,12.50
2019-02-27T21:27:49.436Z,24.23
2019-02-27T21:30:22.339Z,21.50
2019-02-27T21:32:51.026Z,16.33
2019-02-27T21:35:19.662Z,21.30
2019-02-27T21:37:48.118Z,13.40
2019-02-27T21:40:17.483Z,23.37
2019-02-27T21:42:45.991Z,17.67
2019-02-27T21:45:19.447Z,16.63
2019-02-27T21:47:51.292Z,16.53
2019-02-27T21:50:22.065Z,25.03
2019-02-27T21:52:54.469Z,27.43
2019-02-27T21:55:20.686Z,22.03
2019-02-27T21:57:49.212Z,13.53
2019-02-27T22:00:25.432Z,12.97
2019-02-27T22:02:55.111Z,15.67
2019-02-27T22:05:23.634Z,16.80
2019-02-27T22:07:52.329Z,17.43
2019-02-27T22:10:20.928Z,19.37
2019-02-27T22:12:51.235Z,17.80
2019-02-27T22:15:25.122Z,24.23
2019-02-27T22:17:53.566Z,16.30
2019-02-27T22:20:22.096Z,13.77
2019-02-27T22:22:51.082Z,24.50
2019-02-27T22:25:19.524Z,20.33
2019-02-27T22:27:48.418Z,28.37
2019-02-27T22:30:23.588Z,21.20
2019-02-27T22:32:52.034Z,16.37
2019-02-27T22:35:20.547Z,12.87
2019-02-27T22:37:52.414Z,18.87
2019-02-27T22:40:22.811Z,24.83
2019-02-27T22:42:51.258Z,18.17
2019-02-27T22:45:20.556Z,21.57
2019-02-27T22:47:49.941Z,18.43
2019-02-27T22:50:21.634Z,17.00
2019-02-27T22:52:54.259Z,20.20
2019-02-27T22:55:20.445Z,13.97
2019-02-27T22:57:48.909Z,17.70
2019-02-27T23:00:44.059Z,12.37
2019-02-27T23:03:12.595Z,14.70
2019-02-27T23:05:41.135Z,24.23
2019-02-27T23:08:09.645Z,22.30
2019-02-27T23:10:38.190Z,16.50
2019-02-27T23:13:12.401Z,13.87
2019-02-27T23:15:39.145Z,13.00
2019-02-27T23:18:07.648Z,12.93
2019-02-27T23:20:36.395Z,18.97
2019-02-27T23:23:05.004Z,17.67
2019-02-27T23:25:33.492Z,18.17
2019-02-27T23:28:02.136Z,19.33
2019-02-27T23:30:30.800Z,10.07
2019-02-27T23:32:59.453Z,14.13
2019-02-27T23:35:29.430Z,14.00
2019-02-27T23:38:02.920Z,17.20
2019-02-27T23:40:28.077Z,17.67
2019-02-27T23:43:02.393Z,17.63
2019-02-27T23:45:27.061Z,17.77
2019-02-27T23:47:55.503Z,19.77
2019-02-27T23:50:23.995Z,31.40
2019-02-27T23:52:53.224Z,20.67
2019-02-27T23:55:22.499Z,41.23
2019-02-27T23:57:50.959Z,24.33
